Time;durP1;ratioP1;P1;durP2;ratioP2;P2;SDS_P1;SDS_P2;PMS_P1;PMS_P2;Temp;Humidity;BMP_temperature;BMP_pressure;BME280_temperature;BME280_humidity;BME280_pressure;Samples;Min_cycle;Max_cycle;Signal;HPM_P1;HPM_P2
2022/09/19 00:01:30;;;;;;;0.10;0.10;;;9.90;89.20;;;;;;4879635;29;20048;-80
2022/09/19 00:03:59;;;;;;;0.50;0.20;;;10.00;89.20;;;;;;4865180;29;20505;-80
2022/09/19 00:06:30;;;;;;;0.30;0.15;;;10.10;89.30;;;;;;4880466;29;20069;-79
2022/09/19 00:08:57;;;;;;;0.13;0.10;;;10.00;89.20;;;;;;4880150;29;20512;-80
2022/09/19 00:11:24;;;;;;;0.65;0.20;;;10.00;89.10;;;;;;4880156;29;20037;-79
2022/09/19 00:13:52;;;;;;;0.88;0.20;;;10.00;89.10;;;;;;4897072;29;20432;-80
2022/09/19 00:16:23;;;;;;;0.45;0.20;;;10.00;89.10;;;;;;4863698;29;20463;-79
2022/09/19 00:18:50;;;;;;;0.63;0.28;;;10.00;89.10;;;;;;4881042;29;20087;-80
2022/09/19 00:21:27;;;;;;;0.68;0.20;;;9.90;88.90;;;;;;4849138;29;20055;-80
2022/09/19 00:26:39;;;;;;;0.20;0.20;;;10.00;89.00;;;;;;4896585;29;20044;-80
2022/09/19 00:29:07;;;;;;;1.00;0.20;;;10.00;89.00;;;;;;4879248;29;20506;-80
2022/09/19 00:31:32;;;;;;;0.55;0.20;;;10.00;89.10;;;;;;4879899;29;20124;-80
2022/09/19 00:34:00;;;;;;;0.32;0.20;;;10.00;89.10;;;;;;4879919;29;20072;-79
2022/09/19 00:36:27;;;;;;;0.52;0.10;;;10.00;89.00;;;;;;4896955;29;20040;-79
2022/09/19 00:38:53;;;;;;;0.60;0.25;;;10.10;89.00;;;;;;4879707;29;20036;-78
2022/09/19 00:41:21;;;;;;;0.52;0.25;;;10.10;89.00;;;;;;4880569;29;20041;-79
2022/09/19 00:43:51;;;;;;;0.10;0.10;;;10.10;89.00;;;;;;4897411;29;20036;-79
2022/09/19 00:46:19;;;;;;;0.88;0.32;;;10.10;89.00;;;;;;4897329;29;20049;-79
2022/09/19 00:48:49;;;;;;;1.08;0.30;;;10.10;89.00;;;;;;4879824;29;20060;-78
2022/09/19 00:51:23;;;;;;;0.25;0.20;;;10.00;88.90;;;;;;4880911;29;20123;-80
2022/09/19 00:53:49;;;;;;;1.17;0.30;;;10.10;88.90;;;;;;4864536;29;20479;-79
2022/09/19 00:56:18;;;;;;;0.93;0.22;;;10.20;88.90;;;;;;4863477;29;20851;-79
2022/09/19 00:58:45;;;;;;;0.55;0.25;;;10.20;88.80;;;;;;4896333;29;20044;-79
2022/09/19 01:01:14;;;;;;;0.45;0.20;;;10.20;88.80;;;;;;4896042;29;20053;-79
2022/09/19 01:03:41;;;;;;;0.90;0.30;;;10.20;88.80;;;;;;4899628;29;20040;-80
2022/09/19 01:06:45;;;;;;;0.30;0.20;;;10.20;88.80;;;;;;4902406;29;20479;-79
2022/09/19 01:09:41;;;;;;;1.45;0.20;;;10.20;88.90;;;;;;4885364;29;20080;-79
2022/09/19 01:12:47;;;;;;;1.15;0.28;;;10.20;88.90;;;;;;4885336;29;20037;-79
2022/09/19 01:15:32;;;;;;;0.85;0.30;;;10.20;88.90;;;;;;4902250;29;20511;-79
2022/09/19 01:18:01;;;;;;;0.85;0.20;;;10.20;88.80;;;;;;4902590;29;20041;-79
2022/09/19 01:20:56;;;;;;;0.68;0.30;;;10.20;88.70;;;;;;4902721;29;20041;-79
2022/09/19 01:23:36;;;;;;;0.95;0.20;;;10.30;88.70;;;;;;4873786;29;20033;-79
2022/09/19 01:26:32;;;;;;;1.17;0.40;;;10.30;88.60;;;;;;4885219;29;20088;-79
2022/09/19 01:29:07;;;;;;;0.73;0.20;;;10.30;88.50;;;;;;4902162;29;20055;-78
2022/09/19 01:31:37;;;;;;;0.10;0.10;;;10.30;88.50;;;;;;4886104;29;20029;-79
2022/09/19 01:34:28;;;;;;;0.70;0.10;;;10.40;88.40;;;;;;4901995;29;20040;-79
2022/09/19 01:37:16;;;;;;;1.08;0.30;;;10.40;88.50;;;;;;4902632;29;20053;-79
2022/09/19 01:39:46;;;;;;;0.88;0.20;;;10.40;88.40;;;;;;4888039;29;20044;-79
2022/09/19 01:42:14;;;;;;;0.40;0.20;;;10.50;88.50;;;;;;4885679;29;20444;-79
2022/09/19 01:44:40;;;;;;;0.22;0.20;;;10.40;88.40;;;;;;4885086;29;20079;-79
2022/09/19 01:47:29;;;;;;;0.20;0.10;;;10.50;88.40;;;;;;4885437;29;20076;-79
2022/09/19 01:50:12;;;;;;;0.10;0.08;;;10.50;88.50;;;;;;4870292;29;20849;-79
2022/09/19 01:53:01;;;;;;;1.08;0.10;;;10.50;88.40;;;;;;4870940;29;20403;-79
2022/09/19 01:55:44;;;;;;;1.10;0.17;;;10.60;88.50;;;;;;4884960;29;20045;-78
2022/09/19 01:58:26;;;;;;;0.40;0.20;;;10.50;88.40;;;;;;4886971;29;20036;-78
2022/09/19 02:01:08;;;;;;;0.10;0.10;;;10.50;88.60;;;;;;4901596;29;20365;-79
2022/09/19 02:03:52;;;;;;;0.15;0.15;;;10.50;88.60;;;;;;4885575;29;20032;-79
2022/09/19 02:06:42;;;;;;;1.00;0.20;;;10.50;88.70;;;;;;4884492;29;20132;-79
2022/09/19 02:09:48;;;;;;;0.63;0.20;;;10.50;88.80;;;;;;4871853;29;20052;-79
2022/09/19 02:12:16;;;;;;;0.20;0.20;;;10.40;88.80;;;;;;4884826;29;20092;-78
2022/09/19 02:14:52;;;;;;;0.40;0.20;;;10.40;88.90;;;;;;4899749;29;20054;-79
2022/09/19 02:17:23;;;;;;;1.35;0.20;;;10.40;88.90;;;;;;4882493;29;20029;-79
2022/09/19 02:20:03;;;;;;;0.80;0.30;;;10.40;88.90;;;;;;4898223;29;20428;-79
2022/09/19 02:22:33;;;;;;;0.60;0.30;;;10.40;88.90;;;;;;4881473;29;20048;-79
2022/09/19 02:25:03;;;;;;;0.35;0.10;;;10.40;88.90;;;;;;4898906;29;20064;-79
2022/09/19 02:27:38;;;;;;;1.00;0.40;;;10.40;88.80;;;;;;4881496;29;20051;-79
2022/09/19 02:30:08;;;;;;;0.22;0.20;;;10.40;88.80;;;;;;4880929;29;20053;-79
2022/09/19 02:32:35;;;;;;;0.43;0.20;;;10.40;88.70;;;;;;4898110;29;20518;-78
2022/09/19 02:35:02;;;;;;;0.95;0.20;;;10.50;88.70;;;;;;4898845;29;20051;-79
2022/09/19 02:37:35;;;;;;;0.82;0.30;;;10.50;88.70;;;;;;4898368;29;20052;-78
2022/09/19 02:40:13;;;;;;;0.52;0.10;;;10.50;88.60;;;;;;4898446;29;20071;-78
2022/09/19 02:42:52;;;;;;;0.70;0.25;;;10.60;88.60;;;;;;4867511;29;20049;-78
2022/09/19 02:45:29;;;;;;;0.55;0.28;;;10.60;88.60;;;;;;4866137;29;20040;-79
2022/09/19 02:48:20;;;;;;;1.17;0.35;;;10.60;88.40;;;;;;4881271;29;20111;-78
2022/09/19 02:51:06;;;;;;;0.45;0.10;;;10.60;88.30;;;;;;4898167;29;20044;-78
2022/09/19 02:53:39;;;;;;;0.28;0.28;;;10.60;88.10;;;;;;4867645;29;20064;-78
2022/09/19 02:56:06;;;;;;;1.17;0.30;;;10.70;88.10;;;;;;4866405;29;20432;-78
2022/09/19 02:58:43;;;;;;;1.42;0.43;;;10.70;88.10;;;;;;4881062;29;20131;-78
2022/09/19 03:01:17;;;;;;;1.25;0.30;;;10.70;88.00;;;;;;4880918;29;20048;-77
2022/09/19 03:06:35;;;;;;;0.50;0.40;;;10.80;87.90;;;;;;4883552;29;20484;-78
2022/09/19 03:09:03;;;;;;;1.58;0.35;;;10.80;87.90;;;;;;4882129;29;20456;-77
2022/09/19 03:11:33;;;;;;;1.27;0.50;;;10.80;87.90;;;;;;4897842;29;20047;-78
2022/09/19 03:13:59;;;;;;;0.57;0.10;;;10.80;88.00;;;;;;4897440;29;20092;-77
2022/09/19 03:16:34;;;;;;;0.13;0.10;;;10.80;87.90;;;;;;4897564;29;20032;-77
2022/09/19 03:19:06;;;;;;;0.75;0.30;;;10.80;88.00;;;;;;4865533;29;20040;-78
2022/09/19 03:21:32;;;;;;;3.53;0.30;;;10.90;88.00;;;;;;4896715;29;20127;-77
2022/09/19 03:23:58;;;;;;;0.10;0.10;;;10.90;88.00;;;;;;4881115;29;20041;-77
2022/09/19 03:26:30;;;;;;;0.75;0.30;;;10.90;87.90;;;;;;4865242;29;20036;-77
2022/09/19 03:28:57;;;;;;;0.15;0.10;;;10.90;87.90;;;;;;4881329;29;20056;-78
2022/09/19 03:31:23;;;;;;;0.88;0.20;;;11.00;88.00;;;;;;4879968;29;20048;-77
2022/09/19 03:33:51;;;;;;;1.13;0.22;;;11.00;87.90;;;;;;4880841;29;20127;-77
2022/09/19 03:36:18;;;;;;;0.20;0.10;;;11.00;88.00;;;;;;4865234;29;20670;-77
2022/09/19 03:38:44;;;;;;;0.30;0.10;;;10.90;88.60;;;;;;4897631;29;20050;-77
2022/09/19 03:41:12;;;;;;;1.05;0.20;;;10.90;88.00;;;;;;4880761;29;20047;-77
2022/09/19 03:43:42;;;;;;;0.10;0.10;;;11.10;88.10;;;;;;4865185;29;20041;-78
2022/09/19 03:46:12;;;;;;;0.88;0.20;;;11.00;88.10;;;;;;4879591;29;20041;-77
2022/09/19 03:48:39;;;;;;;0.20;0.20;;;10.90;88.20;;;;;;4865189;29;20058;-77
2022/09/19 03:51:06;;;;;;;0.95;0.20;;;10.90;88.20;;;;;;4897090;29;20387;-77
2022/09/19 03:53:33;;;;;;;1.13;0.22;;;10.90;88.20;;;;;;4897168;29;20124;-77
2022/09/19 03:56:00;;;;;;;0.20;0.20;;;10.90;88.20;;;;;;4864990;29;20398;-77
2022/09/19 03:58:26;;;;;;;0.52;0.30;;;10.90;88.20;;;;;;4880987;29;20044;-77
2022/09/19 04:00:52;;;;;;;0.32;0.20;;;10.90;88.30;;;;;;4880369;29;20032;-77
2022/09/19 04:03:18;;;;;;;1.30;0.20;;;10.90;88.30;;;;;;4880556;29;20368;-77
2022/09/19 04:05:45;;;;;;;0.10;0.10;;;10.90;88.30;;;;;;4897140;29;20044;-77
2022/09/19 04:08:11;;;;;;;0.10;0.10;;;10.80;88.40;;;;;;4880911;29;20032;-77
2022/09/19 04:10:37;;;;;;;0.43;0.20;;;10.80;88.50;;;;;;4865293;29;20033;-77
2022/09/19 04:13:03;;;;;;;0.40;0.35;;;10.80;88.60;;;;;;4897171;29;20043;-78
2022/09/19 04:15:29;;;;;;;0.63;0.20;;;10.70;88.50;;;;;;4880546;29;20391;-77
2022/09/19 04:17:54;;;;;;;1.23;0.40;;;10.70;88.60;;;;;;4880439;29;20033;-77
2022/09/19 04:20:23;;;;;;;0.77;0.30;;;10.80;88.60;;;;;;4864927;29;20048;-77
2022/09/19 04:22:49;;;;;;;1.05;0.40;;;10.80;88.50;;;;;;4880258;29;20072;-77
2022/09/19 04:25:15;;;;;;;0.43;0.20;;;10.70;88.40;;;;;;4880439;29;20485;-77
2022/09/19 04:27:41;;;;;;;0.55;0.20;;;10.80;88.40;;;;;;4896897;29;20040;-77
2022/09/19 04:30:07;;;;;;;0.90;0.20;;;10.90;88.40;;;;;;4865010;29;20040;-77
2022/09/19 04:32:34;;;;;;;0.35;0.20;;;10.80;88.30;;;;;;4880288;29;20040;-77
2022/09/19 04:34:59;;;;;;;0.30;0.20;;;10.80;88.20;;;;;;4880746;29;20081;-77
2022/09/19 04:37:26;;;;;;;0.68;0.10;;;10.80;88.30;;;;;;4897014;29;20057;-76
2022/09/19 04:39:52;;;;;;;0.68;0.30;;;10.90;88.20;;;;;;4896611;29;20037;-77
2022/09/19 04:42:18;;;;;;;0.70;0.22;;;11.00;88.30;;;;;;4879829;29;20059;-77
2022/09/19 04:44:44;;;;;;;1.60;0.30;;;10.90;88.20;;;;;;4880430;29;20045;-77
2022/09/19 04:47:10;;;;;;;0.20;0.20;;;11.00;88.10;;;;;;4896699;29;20064;-77
2022/09/19 04:49:39;;;;;;;0.28;0.20;;;11.00;88.10;;;;;;4849192;29;20052;-76
2022/09/19 04:52:12;;;;;;;0.52;0.17;;;11.00;88.10;;;;;;4896466;29;20029;-77
2022/09/19 04:54:38;;;;;;;0.90;0.22;;;11.10;88.10;;;;;;4880535;29;20083;-77
2022/09/19 04:57:05;;;;;;;0.60;0.20;;;11.10;88.00;;;;;;4879765;29;20452;-77
2022/09/19 04:59:34;;;;;;;0.35;0.20;;;11.10;88.60;;;;;;4896586;29;20036;-77
2022/09/19 05:02:01;;;;;;;0.30;0.17;;;11.20;87.90;;;;;;4879905;29;20033;-77
2022/09/19 05:04:27;;;;;;;0.45;0.20;;;11.20;87.90;;;;;;4896897;29;20510;-76
2022/09/19 05:06:53;;;;;;;0.55;0.20;;;11.20;87.80;;;;;;4895666;29;20053;-77
2022/09/19 05:09:22;;;;;;;0.30;0.13;;;11.20;87.90;;;;;;4864096;29;20052;-78
2022/09/19 05:11:49;;;;;;;0.63;0.13;;;11.20;88.50;;;;;;4865197;29;20040;-77
2022/09/19 05:14:15;;;;;;;1.80;0.38;;;11.20;88.00;;;;;;4896438;29;20052;-77
2022/09/19 05:16:42;;;;;;;0.52;0.20;;;11.10;88.00;;;;;;4879965;29;20807;-76
2022/09/19 05:19:08;;;;;;;0.65;0.35;;;11.10;88.10;;;;;;4879651;29;20616;-76
2022/09/19 05:21:34;;;;;;;0.52;0.10;;;11.20;88.20;;;;;;4896829;29;20028;-76
2022/09/19 05:24:01;;;;;;;0.55;0.25;;;11.10;88.20;;;;;;4879814;29;20040;-76
2022/09/19 05:26:27;;;;;;;1.50;0.20;;;11.10;88.20;;;;;;4896093;29;20045;-77
2022/09/19 05:28:53;;;;;;;0.65;0.20;;;11.10;88.20;;;;;;4879244;29;20189;-77
2022/09/19 05:31:19;;;;;;;2.53;0.20;;;11.20;88.30;;;;;;4879672;29;20033;-76
2022/09/19 05:33:46;;;;;;;0.40;0.10;;;11.20;88.30;;;;;;4879217;29;20491;-77
2022/09/19 05:36:13;;;;;;;1.15;0.20;;;11.20;88.30;;;;;;4896552;29;20124;-77
2022/09/19 05:38:39;;;;;;;0.52;0.10;;;11.20;88.10;;;;;;4879370;29;20044;-77
2022/09/19 05:41:05;;;;;;;0.28;0.22;;;11.20;88.10;;;;;;4879291;29;20036;-76
2022/09/19 05:43:32;;;;;;;0.47;0.25;;;11.30;88.10;;;;;;4895630;29;20484;-76
2022/09/19 05:45:59;;;;;;;0.28;0.10;;;11.30;88.10;;;;;;4863258;29;20580;-77
2022/09/19 05:48:26;;;;;;;0.10;0.10;;;11.40;88.10;;;;;;4878940;29;20044;-77
2022/09/19 05:50:53;;;;;;;0.30;0.20;;;11.40;88.10;;;;;;4897972;29;20116;-77
2022/09/19 05:56:02;;;;;;;0.13;0.13;;;11.40;88.00;;;;;;4899104;29;20057;-77
2022/09/19 05:58:29;;;;;;;1.13;0.20;;;11.40;88.00;;;;;;4882415;29;20495;-76
2022/09/19 06:00:55;;;;;;;0.10;0.10;;;11.50;88.00;;;;;;4882346;29;20495;-77
2022/09/19 06:03:22;;;;;;;2.67;0.20;;;11.50;88.00;;;;;;4899193;29;20047;-76
2022/09/19 06:05:52;;;;;;;0.50;0.10;;;11.50;87.90;;;;;;4899089;29;20101;-76
2022/09/19 06:08:21;;;;;;;0.90;0.20;;;11.50;87.90;;;;;;4899029;29;20041;-75
2022/09/19 06:10:47;;;;;;;0.45;0.20;;;11.60;87.90;;;;;;4872123;29;20040;-76
2022/09/19 06:13:15;;;;;;;0.77;0.20;;;11.60;87.90;;;;;;4898818;29;20024;-78
2022/09/19 06:15:41;;;;;;;0.40;0.22;;;11.70;87.90;;;;;;4882445;29;20045;-77
2022/09/19 06:18:11;;;;;;;0.20;0.20;;;11.70;87.80;;;;;;4866907;29;20040;-78
2022/09/19 06:20:38;;;;;;;0.85;0.28;;;11.70;87.80;;;;;;4899017;29;20594;-78
2022/09/19 06:23:06;;;;;;;0.73;0.35;;;11.70;87.80;;;;;;4899005;29;20036;-78
2022/09/19 06:25:33;;;;;;;0.35;0.20;;;11.70;87.90;;;;;;4882104;29;20041;-78
2022/09/19 06:28:02;;;;;;;0.30;0.10;;;11.70;87.80;;;;;;4882623;29;20060;-77
2022/09/19 06:30:28;;;;;;;0.65;0.20;;;11.70;87.80;;;;;;4882756;29;20056;-78
2022/09/19 06:37:52;;;;;;;1.15;0.13;;;11.70;88.70;;;;;;4839643;29;20048;-79
2022/09/19 06:43:51;;;;;;;0.90;0.10;;;11.60;88.00;;;;;;4839797;29;20125;-77
2022/09/19 07:12:05;;;;;;;0.22;0.10;;;11.80;88.10;;;;;;4637309;30;20138;-78
2022/09/19 07:14:34;;;;;;;0.38;0.20;;;11.90;87.90;;;;;;4646135;30;20050;-79
2022/09/19 07:17:00;;;;;;;0.80;0.30;;;11.90;87.70;;;;;;4645737;30;20577;-78
2022/09/19 07:19:26;;;;;;;0.28;0.10;;;12.10;87.60;;;;;;4637844;30;20058;-79
2022/09/19 07:22:06;;;;;;;0.47;0.28;;;12.20;87.30;;;;;;4663321;30;20089;-79
2022/09/19 07:24:44;;;;;;;0.65;0.10;;;12.30;87.30;;;;;;4666937;30;20053;-79
2022/09/19 07:27:10;;;;;;;0.63;0.20;;;12.30;87.20;;;;;;4697123;30;20034;-77
2022/09/19 07:29:36;;;;;;;0.10;0.10;;;12.40;87.00;;;;;;4712157;30;20067;-77
2022/09/19 07:47:27;;;;;;;0.40;0.30;;;13.00;86.40;;;;;;4729554;30;20056;-78
2022/09/19 07:49:56;;;;;;;1.13;0.30;;;13.10;86.10;;;;;;4717748;30;20057;-77
2022/09/19 07:52:22;;;;;;;0.68;0.17;;;13.10;85.80;;;;;;4703104;30;20033;-77
2022/09/19 07:54:52;;;;;;;2.97;0.52;;;13.20;85.70;;;;;;4731758;30;20065;-78
2022/09/19 07:57:18;;;;;;;0.52;0.22;;;13.30;85.50;;;;;;4731801;30;20056;-78
2022/09/19 08:03:10;;;;;;;0.20;0.20;;;13.20;85.80;;;;;;4626894;31;20047;-78
2022/09/19 08:05:42;;;;;;;1.20;0.30;;;13.30;86.00;;;;;;4603781;31;20048;-78
2022/09/19 08:08:19;;;;;;;0.22;0.15;;;13.30;86.00;;;;;;4580315;31;20063;-79
2022/09/19 08:11:12;;;;;;;0.20;0.20;;;13.30;86.10;;;;;;4579004;31;20056;-79
2022/09/19 08:14:05;;;;;;;1.20;0.40;;;13.40;86.20;;;;;;4621246;30;20035;-79
2022/09/19 08:17:17;;;;;;;1.60;0.32;;;13.50;86.10;;;;;;4647008;30;20130;-79
2022/09/19 08:33:41;;;;;;;1.15;0.30;;;14.10;85.30;;;;;;4697227;30;20521;-80
2022/09/19 08:36:16;;;;;;;1.42;0.30;;;14.10;84.60;;;;;;4657383;30;20042;-80
2022/09/19 08:38:46;;;;;;;2.38;0.32;;;14.30;84.70;;;;;;4655732;30;20141;-78
2022/09/19 08:41:54;;;;;;;2.20;0.60;;;14.30;84.70;;;;;;4658223;30;20133;-78
2022/09/19 08:44:42;;;;;;;0.52;0.25;;;14.40;84.70;;;;;;4639135;30;20109;-77
2022/09/19 08:51:39;;;;;;;0.77;0.40;;;14.60;84.60;;;;;;4566925;31;20109;-78
2022/09/19 09:24:45;;;;;;;1.23;0.45;;;15.30;83.10;;;;;;4501560;31;20321;-77
2022/09/19 09:44:44;;;;;;;0.40;0.30;;;15.10;83.40;;;;;;4527340;31;20205;-78
2022/09/19 09:47:44;;;;;;;0.50;0.30;;;15.10;83.60;;;;;;4576959;31;20499;-77
2022/09/19 09:57:44;;;;;;;0.60;0.30;;;15.10;83.60;;;;;;4606279;31;20119;-75
2022/09/19 10:03:43;;;;;;;0.13;0.13;;;15.40;83.20;;;;;;4642745;30;20162;-77
2022/09/19 10:06:48;;;;;;;0.43;0.20;;;15.50;82.70;;;;;;4720667;30;20068;-77
2022/09/19 10:14:01;;;;;;;0.28;0.20;;;15.80;82.00;;;;;;4702831;30;20061;-79
2022/09/19 10:17:39;;;;;;;0.82;0.20;;;15.80;81.80;;;;;;4695676;30;20057;-77
2022/09/19 10:31:09;;;;;;;0.95;0.40;;;15.70;82.40;;;;;;4527566;31;20552;-78
2022/09/19 10:34:07;;;;;;;0.93;0.35;;;15.70;82.40;;;;;;4556177;31;20060;-78
2022/09/19 10:37:39;;;;;;;0.45;0.20;;;15.80;82.20;;;;;;4576512;31;20068;-78
2022/09/19 10:40:25;;;;;;;0.35;0.25;;;15.90;81.70;;;;;;4575959;31;20064;-79
2022/09/19 10:42:55;;;;;;;1.00;0.30;;;16.00;81.30;;;;;;4507995;31;20069;-79
2022/09/19 10:48:32;;;;;;;0.80;0.30;;;15.80;81.20;;;;;;4588811;31;20103;-79
2022/09/19 10:51:25;;;;;;;0.50;0.30;;;15.70;81.30;;;;;;4538102;31;20671;-77
2022/09/19 11:00:52;;;;;;;0.32;0.22;;;15.30;82.00;;;;;;4678699;30;20109;-79
2022/09/19 11:04:12;;;;;;;0.75;0.30;;;15.10;82.10;;;;;;4735013;30;20048;-78
2022/09/19 11:10:33;;;;;;;0.50;0.20;;;15.10;82.30;;;;;;4610970;31;20063;-78
2022/09/19 11:13:25;;;;;;;0.32;0.10;;;15.00;82.20;;;;;;4619551;31;20052;-79
2022/09/19 11:27:48;;;;;;;0.13;0.13;;;15.10;82.10;;;;;;4483864;32;20121;-79
2022/09/19 11:31:05;;;;;;;0.65;0.20;;;15.00;82.30;;;;;;4465529;32;20168;-77
2022/09/19 11:41:12;;;;;;;0.57;0.28;;;15.20;82.50;;;;;;4467747;32;20576;-78
2022/09/19 11:47:39;;;;;;;1.13;0.30;;;15.40;81.80;;;;;;4467947;32;20430;-79
2022/09/19 11:50:59;;;;;;;0.80;0.30;;;15.60;81.70;;;;;;4489721;31;20063;-77
2022/09/19 12:08:20;;;;;;;0.75;0.20;;;16.10;80.50;;;;;;4542152;31;20515;-77
2022/09/19 12:14:50;;;;;;;0.10;0.10;;;16.10;80.50;;;;;;4633219;30;20572;-77
2022/09/19 12:18:07;;;;;;;0.38;0.25;;;16.30;80.00;;;;;;4645819;30;20065;-79
2022/09/19 12:21:00;;;;;;;0.10;0.10;;;16.40;79.60;;;;;;4610805;31;20130;-77
2022/09/19 12:27:13;;;;;;;2.22;0.57;;;16.70;78.40;;;;;;4529269;31;20080;-77
2022/09/19 12:29:57;;;;;;;1.33;0.40;;;16.70;77.70;;;;;;4541760;31;20058;-77
2022/09/19 12:32:41;;;;;;;1.45;0.45;;;16.60;77.60;;;;;;4562152;31;20151;-78
2022/09/19 12:35:34;;;;;;;1.88;0.50;;;16.40;77.40;;;;;;4572447;31;20060;-77
2022/09/19 12:38:27;;;;;;;0.57;0.30;;;16.30;77.90;;;;;;4570388;31;20056;-77
2022/09/19 12:41:07;;;;;;;1.50;0.35;;;16.00;78.20;;;;;;4576238;31;20075;-77
2022/09/19 12:44:08;;;;;;;0.30;0.20;;;16.00;78.60;;;;;;4578044;31;20091;-77
2022/09/19 12:46:58;;;;;;;1.65;0.40;;;16.00;78.70;;;;;;4589774;31;20048;-77
2022/09/19 12:49:42;;;;;;;0.30;0.20;;;16.20;78.40;;;;;;4593386;31;20060;-77
2022/09/19 12:52:28;;;;;;;1.05;0.30;;;16.20;78.10;;;;;;4617709;31;20583;-77
2022/09/19 12:55:16;;;;;;;1.02;0.50;;;16.10;78.20;;;;;;4628425;31;20115;-78
2022/09/19 13:48:58;;;;;;;0.10;0.10;;;16.00;78.30;;;;;;6007096;23;20026;-79
2022/09/19 13:58:39;;;;;;;0.30;0.30;;;16.10;77.80;;;;;;4819448;29;20069;-80
2022/09/19 14:01:34;;;;;;;0.47;0.20;;;15.90;78.00;;;;;;4768186;30;20508;-79
2022/09/19 14:07:30;;;;;;;0.28;0.20;;;15.90;78.10;;;;;;4764854;30;20511;-79
2022/09/19 14:10:29;;;;;;;0.20;0.20;;;15.90;78.10;;;;;;4762735;30;20546;-79
2022/09/19 14:13:03;;;;;;;0.20;0.20;;;15.80;78.30;;;;;;4768418;30;20158;-80
2022/09/19 14:16:06;;;;;;;1.08;0.25;;;15.80;78.40;;;;;;4772211;30;20054;-81
2022/09/19 14:19:43;;;;;;;0.70;0.30;;;15.60;78.70;;;;;;4800937;29;21381;-80
2022/09/19 14:22:44;;;;;;;0.13;0.10;;;15.40;78.90;;;;;;4714621;30;20061;-80
2022/09/19 14:25:23;;;;;;;1.88;0.20;;;15.40;79.20;;;;;;4695158;30;20113;-79
2022/09/19 14:28:47;;;;;;;0.47;0.20;;;15.40;79.30;;;;;;4705086;30;20130;-80
2022/09/19 14:31:40;;;;;;;0.32;0.30;;;15.30;79.30;;;;;;4709784;30;20052;-81
2022/09/19 14:38:03;;;;;;;0.37;0.20;;;15.30;79.20;;;;;;4749948;30;20059;-79
2022/09/19 14:40:51;;;;;;;0.20;0.10;;;15.30;79.00;;;;;;4751061;30;20059;-79
2022/09/19 14:43:44;;;;;;;0.95;0.28;;;15.20;78.80;;;;;;4751046;30;20040;-80
2022/09/19 14:46:35;;;;;;;0.17;0.15;;;15.30;78.90;;;;;;4750474;30;20060;-80
2022/09/19 14:49:24;;;;;;;0.20;0.20;;;15.20;78.70;;;;;;4755303;30;20056;-80
2022/09/19 14:52:00;;;;;;;0.35;0.20;;;15.30;78.70;;;;;;4768926;30;20548;-80
2022/09/19 14:54:38;;;;;;;0.40;0.10;;;15.40;78.50;;;;;;4768202;30;21056;-80
2022/09/19 14:57:13;;;;;;;0.52;0.17;;;15.30;78.20;;;;;;4768040;30;20036;-78
2022/09/19 14:59:40;;;;;;;1.50;0.30;;;15.30;78.20;;;;;;4875122;29;20042;-78
2022/09/19 15:02:21;;;;;;;0.57;0.20;;;15.40;78.10;;;;;;4880005;29;20052;-78
2022/09/19 15:04:51;;;;;;;0.65;0.20;;;15.30;77.70;;;;;;4878551;29;20037;-78
2022/09/19 15:07:26;;;;;;;1.88;0.45;;;15.50;77.50;;;;;;4878174;29;20516;-78
2022/09/19 15:09:52;;;;;;;0.65;0.32;;;15.60;77.10;;;;;;4878236;29;20078;-77
2022/09/19 15:12:24;;;;;;;0.22;0.20;;;15.70;76.80;;;;;;4877752;29;20072;-78
2022/09/19 15:14:53;;;;;;;0.40;0.30;;;15.70;77.20;;;;;;4878078;29;20392;-77
2022/09/19 15:17:22;;;;;;;0.63;0.30;;;15.70;76.50;;;;;;4879205;29;20377;-77
2022/09/19 15:19:51;;;;;;;1.02;0.40;;;15.60;76.50;;;;;;4879495;29;20053;-76
2022/09/19 15:22:32;;;;;;;1.35;0.28;;;15.50;76.70;;;;;;4879299;29;20044;-77
2022/09/19 15:25:07;;;;;;;0.80;0.30;;;15.20;77.10;;;;;;4879209;29;20041;-78
2022/09/19 15:27:45;;;;;;;0.40;0.20;;;14.90;78.10;;;;;;4877864;29;20037;-78
2022/09/19 15:30:24;;;;;;;0.85;0.30;;;14.60;78.90;;;;;;4879330;29;20404;-78
2022/09/19 15:33:01;;;;;;;0.20;0.10;;;14.30;79.70;;;;;;4879653;29;20455;-78
2022/09/19 15:35:28;;;;;;;0.50;0.32;;;14.30;80.20;;;;;;4879823;29;20033;-78
2022/09/19 15:38:00;;;;;;;0.50;0.25;;;14.20;80.60;;;;;;4877272;29;20476;-78
2022/09/19 15:40:26;;;;;;;0.68;0.20;;;14.10;80.90;;;;;;4877244;29;20039;-78
2022/09/19 15:42:57;;;;;;;0.20;0.20;;;14.00;81.10;;;;;;4879605;29;20425;-78
2022/09/19 15:45:37;;;;;;;0.20;0.20;;;14.00;81.30;;;;;;4877681;29;20421;-78
2022/09/19 15:48:10;;;;;;;0.10;0.10;;;14.00;81.50;;;;;;4877740;29;20113;-78
2022/09/19 15:50:41;;;;;;;0.57;0.20;;;14.00;81.40;;;;;;4877453;29;20044;-77
2022/09/19 15:53:17;;;;;;;1.02;0.20;;;14.00;81.30;;;;;;4878766;29;20079;-78
2022/09/19 15:55:44;;;;;;;0.10;0.10;;;14.20;81.40;;;;;;4877752;29;20041;-78
2022/09/19 15:58:20;;;;;;;0.13;0.10;;;14.10;81.40;;;;;;4877415;29;20044;-78
2022/09/19 16:00:46;;;;;;;0.38;0.20;;;14.10;81.40;;;;;;4878139;29;20476;-78
2022/09/19 16:03:19;;;;;;;0.52;0.20;;;14.10;81.50;;;;;;4876862;29;20124;-78
2022/09/19 16:05:45;;;;;;;0.20;0.20;;;14.00;81.60;;;;;;4879050;29;20377;-78
2022/09/19 16:11:30;;;;;;;0.05;0.05;;;14.00;81.70;;;;;;4877587;29;20568;-78
2022/09/19 16:14:18;;;;;;;0.55;0.20;;;14.00;81.80;;;;;;4877460;29;20029;-78
2022/09/19 16:16:45;;;;;;;0.10;0.10;;;14.10;82.50;;;;;;4878469;29;20040;-78
2022/09/19 16:19:21;;;;;;;0.20;0.20;;;14.10;81.80;;;;;;4877368;29;20399;-78
2022/09/19 16:21:52;;;;;;;0.20;0.20;;;14.10;81.70;;;;;;4880406;29;20176;-78
2022/09/19 16:24:21;;;;;;;1.23;0.22;;;14.10;81.80;;;;;;4867534;29;20041;-77
2022/09/19 16:26:51;;;;;;;0.65;0.20;;;14.10;81.60;;;;;;4885067;29;20124;-78
2022/09/19 16:29:18;;;;;;;0.85;0.20;;;14.20;81.60;;;;;;4882371;29;20041;-77
2022/09/19 16:31:46;;;;;;;0.30;0.30;;;14.20;81.50;;;;;;4879971;29;20033;-78
2022/09/19 16:34:36;;;;;;;1.30;0.40;;;14.20;81.50;;;;;;4859566;29;20057;-78
2022/09/19 16:37:03;;;;;;;0.55;0.30;;;14.20;81.50;;;;;;4878394;29;21428;-78
2022/09/19 16:39:49;;;;;;;1.08;0.43;;;14.10;81.60;;;;;;4860983;29;20472;-78
2022/09/19 16:42:27;;;;;;;2.17;0.50;;;14.10;81.70;;;;;;4878174;29;20068;-77
2022/09/19 16:45:16;;;;;;;0.80;0.25;;;14.00;81.70;;;;;;4878283;29;20519;-79
2022/09/19 16:47:43;;;;;;;0.63;0.30;;;14.00;81.80;;;;;;4880216;29;20385;-77
2022/09/19 16:50:11;;;;;;;1.00;0.25;;;14.00;81.90;;;;;;4878654;29;20049;-78
2022/09/19 16:52:39;;;;;;;1.38;0.22;;;13.90;81.90;;;;;;4878866;29;20039;-77
2022/09/19 16:55:20;;;;;;;0.20;0.20;;;13.80;82.00;;;;;;4879203;29;20141;-77
2022/09/19 16:57:46;;;;;;;0.15;0.10;;;13.90;82.10;;;;;;4860589;29;20029;-77
2022/09/19 17:00:13;;;;;;;0.25;0.20;;;13.80;82.20;;;;;;4876675;29;20140;-77
2022/09/19 17:02:39;;;;;;;0.17;0.17;;;13.70;82.20;;;;;;4878881;29;20150;-77
2022/09/19 17:05:16;;;;;;;1.00;0.25;;;13.90;82.30;;;;;;4877115;29;20063;-77
2022/09/19 17:07:42;;;;;;;1.17;0.28;;;13.80;82.30;;;;;;4878834;29;20153;-76
2022/09/19 17:10:10;;;;;;;0.50;0.30;;;13.80;82.30;;;;;;4879675;29;20496;-77
2022/09/19 17:12:36;;;;;;;0.57;0.20;;;13.70;82.30;;;;;;4878646;29;20049;-76
2022/09/19 17:15:02;;;;;;;0.75;0.30;;;13.80;82.30;;;;;;4877932;29;20041;-76
2022/09/19 17:17:27;;;;;;;0.85;0.20;;;13.70;82.30;;;;;;4876506;29;20112;-76
2022/09/19 17:19:53;;;;;;;0.55;0.25;;;13.70;82.40;;;;;;4877337;29;20092;-76
2022/09/19 17:22:19;;;;;;;0.17;0.13;;;13.70;82.50;;;;;;4876889;29;20041;-76
2022/09/19 17:24:46;;;;;;;0.60;0.20;;;13.70;82.50;;;;;;4881261;29;20060;-78
2022/09/19 17:27:12;;;;;;;0.77;0.20;;;13.70;82.50;;;;;;4884135;29;20504;-77
2022/09/19 17:29:38;;;;;;;0.10;0.10;;;13.70;82.60;;;;;;4882936;29;20081;-78
2022/09/19 17:32:07;;;;;;;0.20;0.20;;;13.60;82.60;;;;;;4881172;29;20112;-77
2022/09/19 17:34:33;;;;;;;0.45;0.30;;;13.70;82.70;;;;;;4876175;29;20100;-77
2022/09/19 17:36:59;;;;;;;0.35;0.15;;;13.70;82.60;;;;;;4877998;29;20127;-77
2022/09/19 17:39:25;;;;;;;1.30;0.43;;;13.60;82.60;;;;;;4878548;29;20438;-78
2022/09/19 17:41:50;;;;;;;0.15;0.15;;;13.60;82.70;;;;;;4879062;29;20369;-78
2022/09/19 17:44:16;;;;;;;1.58;0.20;;;13.60;82.80;;;;;;4882219;29;20051;-76
2022/09/19 17:46:42;;;;;;;0.10;0.10;;;13.50;82.80;;;;;;4879479;29;20037;-76
2022/09/19 17:49:09;;;;;;;0.10;0.10;;;13.50;82.90;;;;;;4881355;29;20105;-76
2022/09/19 17:51:36;;;;;;;1.77;0.40;;;13.50;82.90;;;;;;4879612;29;20112;-76
2022/09/19 17:54:01;;;;;;;0.65;0.40;;;13.50;83.00;;;;;;4880378;29;20033;-76
2022/09/19 17:56:28;;;;;;;0.75;0.30;;;13.50;83.00;;;;;;4879140;29;20040;-76
2022/09/19 17:58:56;;;;;;;0.30;0.28;;;13.50;83.10;;;;;;4881909;29;20097;-76
2022/09/19 18:04:00;;;;;;;0.10;0.10;;;13.40;83.20;;;;;;4881951;29;20057;-76
2022/09/19 18:06:26;;;;;;;0.85;0.30;;;13.40;83.20;;;;;;4881580;29;20514;-75
2022/09/19 18:08:53;;;;;;;0.10;0.10;;;13.40;83.20;;;;;;4881472;29;20049;-76
2022/09/19 18:11:19;;;;;;;0.60;0.17;;;13.40;83.20;;;;;;4882801;29;20037;-77